createdAt,value
2018-05-31T00:00:50.701Z,96.51
2018-05-31T00:01:50.729Z,96.61
2018-05-31T00:02:50.741Z,96.51
2018-05-31T00:03:50.779Z,96.32
2018-05-31T00:04:50.792Z,96.32
2018-05-31T00:05:50.818Z,96.22
2018-05-31T00:06:50.844Z,96.13
2018-05-31T00:07:50.870Z,96.03
2018-05-31T00:08:50.887Z,96.32
2018-05-31T00:09:50.910Z,96.61
2018-05-31T00:10:50.937Z,96.61
2018-05-31T00:11:50.964Z,96.13
2018-05-31T00:12:50.988Z,96.13
2018-05-31T00:13:51.013Z,95.55
2018-05-31T00:14:51.040Z,95.65
2018-05-31T00:15:51.053Z,95.75
2018-05-31T00:16:51.081Z,95.75
2018-05-31T00:17:51.105Z,95.75
2018-05-31T00:18:51.130Z,95.65
2018-05-31T00:19:51.170Z,95.65
2018-05-31T00:20:51.184Z,95.84
2018-05-31T00:21:51.209Z,95.55
2018-05-31T00:22:51.222Z,95.17
2018-05-31T00:23:51.249Z,95.07
2018-05-31T00:24:51.286Z,94.98
2018-05-31T00:25:51.301Z,94.98
2018-05-31T00:26:51.328Z,94.78
2018-05-31T00:27:51.352Z,94.88
2018-05-31T00:28:51.366Z,94.88
2018-05-31T00:29:51.391Z,94.68
2018-05-31T00:30:51.417Z,95.17
2018-05-31T00:31:51.442Z,94.49
2018-05-31T00:32:51.469Z,94.68
2018-05-31T00:33:51.494Z,94.68
2018-05-31T00:34:51.520Z,94.59
2018-05-31T00:35:51.533Z,94.45
2018-05-31T00:36:51.560Z,95.17
2018-05-31T00:37:51.585Z,94.68
2018-05-31T00:38:51.612Z,94.35
2018-05-31T00:39:51.641Z,94.68
2018-05-31T00:40:51.663Z,94.78
2018-05-31T00:41:51.676Z,94.73
2018-05-31T00:42:51.703Z,94.64
2018-05-31T00:43:51.729Z,94.54
2018-05-31T00:44:51.755Z,94.73
2018-05-31T00:45:51.783Z,94.26
2018-05-31T00:46:51.807Z,94.64
2018-05-31T00:47:51.820Z,94.73
2018-05-31T00:48:51.846Z,94.93
2018-05-31T00:49:51.872Z,94.54
2018-05-31T00:50:51.899Z,94.54
2018-05-31T00:51:51.924Z,95.03
2018-05-31T00:52:51.949Z,94.93
2018-05-31T00:53:51.964Z,95.12
2018-05-31T00:54:52.002Z,94.93
2018-05-31T00:55:52.015Z,95.12
2018-05-31T00:56:52.051Z,94.83
2018-05-31T00:57:52.067Z,95.31
2018-05-31T00:58:52.092Z,95.31
2018-05-31T00:59:52.107Z,95.40
2018-05-31T01:00:52.133Z,94.93
2018-05-31T01:01:52.161Z,94.93
2018-05-31T01:02:52.184Z,95.31
2018-05-31T01:03:52.210Z,95.60
2018-05-31T01:04:52.240Z,95.21
2018-05-31T01:05:52.249Z,95.21
2018-05-31T01:06:52.276Z,95.03
2018-05-31T01:07:52.302Z,95.03
2018-05-31T01:08:52.327Z,95.31
2018-05-31T01:09:52.352Z,95.21
2018-05-31T01:10:52.379Z,95.31
2018-05-31T01:11:52.400Z,95.21
2018-05-31T01:12:52.419Z,95.03
2018-05-31T01:13:52.445Z,95.50
2018-05-31T01:14:52.470Z,95.40
2018-05-31T01:15:52.496Z,95.12
2018-05-31T01:16:52.522Z,95.50
2018-05-31T01:17:52.535Z,95.40
2018-05-31T01:18:52.561Z,95.12
2018-05-31T01:19:52.599Z,95.31
2018-05-31T01:20:52.613Z,95.50
2018-05-31T01:21:52.642Z,95.31
2018-05-31T01:22:52.664Z,95.21
2018-05-31T01:23:52.679Z,95.12
2018-05-31T01:24:52.705Z,95.31
2018-05-31T01:25:52.730Z,95.89
2018-05-31T01:26:52.756Z,95.60
2018-05-31T01:27:52.783Z,95.70
2018-05-31T01:28:52.795Z,95.40
2018-05-31T01:29:52.821Z,95.70
2018-05-31T01:30:52.848Z,95.70
2018-05-31T01:31:52.872Z,95.79
2018-05-31T01:32:52.899Z,95.70
2018-05-31T01:33:52.924Z,95.40
2018-05-31T01:34:52.940Z,95.50
2018-05-31T01:35:52.965Z,95.36
2018-05-31T01:36:52.991Z,95.45
2018-05-31T01:37:53.017Z,95.65
2018-05-31T01:38:53.043Z,95.60
2018-05-31T01:39:53.055Z,95.55
2018-05-31T01:40:53.080Z,95.55
2018-05-31T01:41:53.107Z,95.55
2018-05-31T01:42:53.134Z,95.89
2018-05-31T01:43:53.159Z,95.55
2018-05-31T01:44:53.185Z,95.50
2018-05-31T01:45:53.198Z,95.94
2018-05-31T01:46:53.225Z,95.94
2018-05-31T01:47:53.251Z,95.55
2018-05-31T01:48:53.277Z,95.55
2018-05-31T01:49:53.303Z,95.84
2018-05-31T01:50:53.315Z,95.94
2018-05-31T01:51:53.342Z,96.03
2018-05-31T01:52:53.369Z,96.03
2018-05-31T01:53:53.392Z,96.13
2018-05-31T01:54:53.420Z,95.94
2018-05-31T01:55:53.433Z,96.03
2018-05-31T01:56:53.458Z,95.94
2018-05-31T01:57:53.485Z,96.42
2018-05-31T01:58:53.510Z,95.94
2018-05-31T01:59:53.539Z,95.94
2018-05-31T02:00:53.562Z,96.03
2018-05-31T02:01:53.576Z,95.84
2018-05-31T02:02:53.601Z,95.84
2018-05-31T02:03:53.628Z,95.94
2018-05-31T02:04:53.653Z,95.94
2018-05-31T02:05:53.680Z,96.03
2018-05-31T02:06:53.705Z,95.75
2018-05-31T02:07:53.720Z,95.45
2018-05-31T02:08:53.745Z,95.45
2018-05-31T02:09:53.772Z,95.45
2018-05-31T02:10:53.797Z,95.84
2018-05-31T02:11:53.824Z,95.94
2018-05-31T02:12:53.836Z,96.03
2018-05-31T02:13:53.875Z,95.84
2018-05-31T02:14:53.889Z,95.55
2018-05-31T02:15:53.913Z,95.55
2018-05-31T02:16:53.939Z,95.94
2018-05-31T02:17:53.955Z,95.45
2018-05-31T02:18:53.979Z,95.65
2018-05-31T02:19:54.006Z,95.94
2018-05-31T02:20:54.032Z,95.75
2018-05-31T02:21:54.061Z,95.84
2018-05-31T02:22:54.086Z,96.22
2018-05-31T02:23:54.098Z,96.03
2018-05-31T02:24:54.122Z,96.13
2018-05-31T02:25:54.148Z,96.22
2018-05-31T02:26:54.174Z,96.42
2018-05-31T02:27:54.200Z,95.84
2018-05-31T02:28:54.225Z,96.32
2018-05-31T02:29:54.239Z,96.51
2018-05-31T02:30:54.265Z,97.09
2018-05-31T02:31:54.292Z,97.04
2018-05-31T02:32:54.318Z,96.51
2018-05-31T02:33:54.331Z,96.99
2018-05-31T02:34:54.360Z,96.66
2018-05-31T02:35:54.382Z,96.94
2018-05-31T02:36:54.409Z,96.75
2018-05-31T02:37:54.434Z,96.94
2018-05-31T02:38:54.460Z,96.85
2018-05-31T02:39:54.474Z,96.66
2018-05-31T02:40:54.500Z,97.04
2018-05-31T02:41:54.525Z,96.37
2018-05-31T02:42:54.551Z,96.47
2018-05-31T02:43:54.580Z,96.18
2018-05-31T02:44:54.590Z,97.04
2018-05-31T02:45:54.615Z,96.94
2018-05-31T02:46:54.643Z,96.85
2018-05-31T02:47:54.669Z,97.24
2018-05-31T02:48:54.693Z,96.85
2018-05-31T02:49:54.709Z,96.94
2018-05-31T02:50:54.735Z,96.66
2018-05-31T02:51:54.759Z,97.04
2018-05-31T02:52:54.785Z,96.94
2018-05-31T02:53:54.811Z,97.42
2018-05-31T02:54:54.827Z,97.33
2018-05-31T02:55:54.850Z,97.33
2018-05-31T02:56:54.876Z,97.14
2018-05-31T02:57:54.902Z,97.52
2018-05-31T02:58:54.941Z,97.91
2018-05-31T02:59:54.941Z,97.52
2018-05-31T03:00:54.969Z,97.52
2018-05-31T03:01:54.993Z,97.33
2018-05-31T03:02:55.020Z,97.61
2018-05-31T03:03:55.046Z,97.24
2018-05-31T03:04:55.058Z,97.52
2018-05-31T03:05:55.097Z,97.33
2018-05-31T03:06:55.110Z,97.33
2018-05-31T03:07:55.137Z,97.81
2018-05-31T03:08:55.162Z,97.81
2018-05-31T03:09:55.177Z,98.00
2018-05-31T03:10:55.202Z,97.81
2018-05-31T03:11:55.228Z,97.81
2018-05-31T03:12:55.253Z,97.81
2018-05-31T03:13:55.280Z,98.00
2018-05-31T03:14:55.293Z,97.91
2018-05-31T03:15:55.320Z,98.00
2018-05-31T03:16:55.344Z,97.81
2018-05-31T03:17:55.371Z,97.81
2018-05-31T03:18:55.397Z,97.81
2018-05-31T03:19:55.418Z,97.81
2018-05-31T03:20:55.438Z,98.00
2018-05-31T03:21:55.462Z,98.00
2018-05-31T03:22:55.489Z,98.86
2018-05-31T03:23:55.502Z,98.86
2018-05-31T03:24:55.532Z,98.86
2018-05-31T03:25:55.553Z,98.48
2018-05-31T03:26:55.579Z,98.48
2018-05-31T03:27:55.617Z,98.77
2018-05-31T03:28:55.620Z,98.67
2018-05-31T03:29:55.648Z,99.05
2018-05-31T03:30:55.674Z,99.05
2018-05-31T03:31:55.697Z,98.96
2018-05-31T03:32:55.723Z,98.86
2018-05-31T03:33:55.737Z,99.15
2018-05-31T03:34:55.774Z,99.05
2018-05-31T03:35:55.789Z,99.15
2018-05-31T03:36:55.813Z,99.34
2018-05-31T03:37:55.839Z,98.86
2018-05-31T03:38:55.865Z,99.05
2018-05-31T03:39:55.882Z,98.86
2018-05-31T03:40:55.905Z,98.96
2018-05-31T03:41:55.932Z,99.15
2018-05-31T03:42:55.957Z,98.67
2018-05-31T03:43:55.970Z,98.67
2018-05-31T03:44:55.996Z,99.15
2018-05-31T03:45:56.023Z,99.05
2018-05-31T03:46:56.047Z,99.25
2018-05-31T03:47:56.073Z,98.58
2018-05-31T03:48:56.092Z,98.86
2018-05-31T03:49:56.113Z,98.86
2018-05-31T03:50:56.139Z,98.67
2018-05-31T03:51:56.165Z,99.05
2018-05-31T03:52:56.191Z,99.05
2018-05-31T03:53:56.205Z,99.15
2018-05-31T03:54:56.231Z,98.96
2018-05-31T03:55:56.257Z,99.05
2018-05-31T03:56:56.294Z,99.15
2018-05-31T03:57:56.307Z,99.34
2018-05-31T03:58:56.333Z,99.05
2018-05-31T03:59:56.348Z,99.15
2018-05-31T04:00:56.374Z,99.05
2018-05-31T04:01:56.399Z,99.05
2018-05-31T04:02:56.426Z,98.96
2018-05-31T04:03:56.465Z,99.25
2018-05-31T04:04:56.464Z,99.34
2018-05-31T04:05:56.490Z,99.34
2018-05-31T04:06:56.520Z,98.86
2018-05-31T04:07:56.544Z,99.20
2018-05-31T04:08:56.568Z,99.05
2018-05-31T04:09:56.594Z,98.96
2018-05-31T04:10:56.608Z,98.91
2018-05-31T04:11:56.634Z,98.91
2018-05-31T04:12:56.681Z,99.01
2018-05-31T04:13:56.687Z,98.63
2018-05-31T04:14:56.714Z,98.53
2018-05-31T04:15:56.725Z,98.63
2018-05-31T04:16:56.751Z,98.53
2018-05-31T04:17:56.776Z,98.63
2018-05-31T04:18:56.802Z,98.72
2018-05-31T04:19:56.829Z,98.53
2018-05-31T04:20:56.841Z,98.72
2018-05-31T04:21:56.871Z,98.34
2018-05-31T04:22:56.894Z,98.91
2018-05-31T04:23:56.920Z,98.72
2018-05-31T04:24:56.946Z,98.53
2018-05-31T04:25:56.971Z,98.53
2018-05-31T04:26:56.985Z,98.43
2018-05-31T04:27:57.010Z,97.96
2018-05-31T04:28:57.037Z,98.00
2018-05-31T04:29:57.075Z,98.05
2018-05-31T04:30:57.088Z,97.52
2018-05-31T04:31:57.114Z,98.00
2018-05-31T04:32:57.128Z,98.00
2018-05-31T04:33:57.158Z,97.81
2018-05-31T04:34:57.179Z,97.71
2018-05-31T04:35:57.206Z,98.10
2018-05-31T04:36:57.232Z,97.81
2018-05-31T04:37:57.257Z,97.33
2018-05-31T04:38:57.274Z,98.10
2018-05-31T04:39:57.297Z,97.52
2018-05-31T04:40:57.322Z,97.33
2018-05-31T04:41:57.361Z,97.33
2018-05-31T04:42:57.374Z,97.42
2018-05-31T04:43:57.401Z,97.52
2018-05-31T04:44:57.427Z,97.33
2018-05-31T04:45:57.442Z,97.24
2018-05-31T04:46:57.467Z,97.71
2018-05-31T04:47:57.493Z,97.71
2018-05-31T04:48:57.518Z,96.85
2018-05-31T04:49:57.546Z,97.57
2018-05-31T04:50:57.570Z,97.76
2018-05-31T04:51:57.583Z,97.47
2018-05-31T04:52:57.609Z,96.90
2018-05-31T04:53:57.634Z,97.19
2018-05-31T04:54:57.661Z,97.76
2018-05-31T04:55:57.687Z,97.47
2018-05-31T04:56:57.711Z,97.57
2018-05-31T04:57:57.739Z,97.38
2018-05-31T04:58:57.763Z,97.19
2018-05-31T04:59:57.778Z,97.09
2018-05-31T05:00:57.803Z,96.80
2018-05-31T05:01:57.829Z,97.28
2018-05-31T05:02:57.867Z,97.76
2018-05-31T05:03:57.881Z,97.09
2018-05-31T05:04:57.907Z,97.19
2018-05-31T05:05:57.933Z,97.47
2018-05-31T05:06:57.960Z,96.99
2018-05-31T05:07:57.973Z,96.90
2018-05-31T05:08:57.998Z,96.94
2018-05-31T05:09:58.023Z,96.37
2018-05-31T05:10:58.049Z,96.37
2018-05-31T05:11:58.075Z,96.08
2018-05-31T05:12:58.124Z,96.66
2018-05-31T05:13:58.128Z,96.56
2018-05-31T05:14:58.155Z,95.98
2018-05-31T05:15:58.178Z,96.27
2018-05-31T05:16:58.206Z,96.08
2018-05-31T05:17:58.223Z,96.17
2018-05-31T05:18:58.247Z,96.17
2018-05-31T05:19:58.271Z,96.03
2018-05-31T05:20:58.297Z,95.74
2018-05-31T05:21:58.324Z,95.84
2018-05-31T05:22:58.349Z,95.74
2018-05-31T05:23:58.378Z,95.65
2018-05-31T05:24:58.401Z,95.26
2018-05-31T05:25:58.426Z,95.50
2018-05-31T05:26:58.452Z,95.12
2018-05-31T05:27:58.478Z,94.25
2018-05-31T05:28:58.493Z,94.25
2018-05-31T05:29:58.518Z,94.20
2018-05-31T05:30:58.545Z,93.81
2018-05-31T05:31:58.570Z,93.72
2018-05-31T05:32:58.594Z,93.72
2018-05-31T05:33:58.622Z,94.01
2018-05-31T05:34:58.646Z,92.94
2018-05-31T05:35:58.672Z,93.28
2018-05-31T05:36:58.698Z,93.28
2018-05-31T05:37:58.725Z,93.28
2018-05-31T05:38:58.750Z,93.09
2018-05-31T05:39:58.776Z,92.90
2018-05-31T05:40:58.815Z,92.41
2018-05-31T05:41:58.829Z,92.71
2018-05-31T05:42:58.854Z,92.61
2018-05-31T05:43:58.880Z,92.41
2018-05-31T05:44:58.908Z,92.32
2018-05-31T05:45:58.932Z,92.32
2018-05-31T05:46:59.003Z,91.98
2018-05-31T05:47:58.983Z,92.03
2018-05-31T05:48:59.026Z,92.17
2018-05-31T05:49:59.037Z,92.46
2018-05-31T05:50:59.064Z,91.88
2018-05-31T05:51:59.087Z,91.78
2018-05-31T05:52:59.113Z,92.17
2018-05-31T05:53:59.139Z,91.98
2018-05-31T05:54:59.165Z,91.88
2018-05-31T05:55:59.204Z,91.78
2018-05-31T05:56:59.217Z,91.69
2018-05-31T05:57:59.243Z,91.98
2018-05-31T05:58:59.270Z,92.02
2018-05-31T05:59:59.295Z,91.98
2018-05-31T06:00:59.321Z,91.98
2018-05-31T06:01:59.359Z,92.12
2018-05-31T06:02:59.373Z,91.83
2018-05-31T06:03:59.399Z,92.08
2018-05-31T06:04:59.425Z,91.74
2018-05-31T06:05:59.452Z,90.96
2018-05-31T06:06:59.489Z,91.54
2018-05-31T06:07:59.503Z,91.44
2018-05-31T06:08:59.542Z,90.38
2018-05-31T06:09:59.601Z,90.29
2018-05-31T06:10:59.600Z,90.58
2018-05-31T06:11:59.623Z,90.38
2018-05-31T06:12:59.645Z,90.33
2018-05-31T06:13:59.670Z,90.23
2018-05-31T06:14:59.697Z,89.56
2018-05-31T06:15:59.724Z,89.47
2018-05-31T06:16:59.753Z,90.23
2018-05-31T06:17:59.775Z,89.31
2018-05-31T06:18:59.801Z,89.41
2018-05-31T06:19:59.834Z,88.35
2018-05-31T06:20:59.853Z,88.06
2018-05-31T06:21:59.930Z,88.20
2018-05-31T06:22:59.916Z,88.20
2018-05-31T06:23:59.943Z,88.34
2018-05-31T06:24:59.981Z,87.76
2018-05-31T06:25:59.995Z,86.89
2018-05-31T06:27:00.020Z,87.03
2018-05-31T06:28:00.047Z,86.45
2018-05-31T06:29:00.084Z,86.25
2018-05-31T06:30:00.111Z,86.35
2018-05-31T06:31:00.137Z,86.16
2018-05-31T06:32:00.164Z,86.20
2018-05-31T06:33:00.201Z,86.20
2018-05-31T06:34:00.227Z,85.62
2018-05-31T06:35:00.254Z,85.82
2018-05-31T06:36:00.279Z,85.57
2018-05-31T06:37:00.318Z,85.96
2018-05-31T06:38:00.343Z,86.15
2018-05-31T06:39:00.370Z,85.41
2018-05-31T06:40:00.399Z,84.06
2018-05-31T06:41:00.434Z,81.97
2018-05-31T06:42:00.461Z,81.48
2018-05-31T06:43:00.552Z,81.39
2018-05-31T06:44:00.530Z,79.97
2018-05-31T06:45:00.549Z,79.20
2018-05-31T06:46:00.588Z,79.43
2018-05-31T06:47:00.627Z,79.96
2018-05-31T06:48:00.653Z,79.57
2018-05-31T06:49:00.679Z,77.18
2018-05-31T06:50:00.716Z,76.40
2018-05-31T06:51:00.742Z,75.62
2018-05-31T06:52:00.781Z,75.57
2018-05-31T06:53:00.807Z,74.88
2018-05-31T06:54:00.859Z,74.24
2018-05-31T06:55:00.871Z,73.37
2018-05-31T06:56:00.909Z,72.78
2018-05-31T06:57:00.947Z,72.33
2018-05-31T06:58:00.975Z,72.72
2018-05-31T06:59:01.016Z,72.86
2018-05-31T07:00:01.043Z,71.72
2018-05-31T07:01:01.075Z,71.72
2018-05-31T07:02:01.115Z,70.46
2018-05-31T07:03:01.141Z,69.03
2018-05-31T07:04:01.181Z,67.96
2018-05-31T07:05:01.218Z,67.47
2018-05-31T07:06:01.245Z,67.22
2018-05-31T07:07:01.282Z,66.44
2018-05-31T07:08:01.320Z,65.59
2018-05-31T07:09:01.347Z,66.47
2018-05-31T07:10:01.386Z,66.96
2018-05-31T07:11:01.425Z,66.37
2018-05-31T07:12:01.463Z,65.43
2018-05-31T07:13:01.486Z,65.43
2018-05-31T07:14:01.527Z,64.97
2018-05-31T07:15:01.564Z,65.85
2018-05-31T07:16:01.603Z,64.68
2018-05-31T07:17:01.641Z,63.60
2018-05-31T07:18:01.670Z,63.54
2018-05-31T07:19:01.707Z,63.64
2018-05-31T07:20:01.761Z,63.18
2018-05-31T07:21:01.784Z,63.38
2018-05-31T07:22:01.821Z,63.48
2018-05-31T07:23:01.848Z,64.29
2018-05-31T07:24:01.897Z,64.29
2018-05-31T07:25:01.936Z,60.96
2018-05-31T07:26:01.963Z,60.57
2018-05-31T07:27:02.002Z,61.29
2018-05-31T07:28:02.040Z,62.66
2018-05-31T07:29:02.094Z,63.05
2018-05-31T07:30:02.121Z,63.24
2018-05-31T07:31:02.183Z,62.69
2018-05-31T07:32:02.180Z,62.00
2018-05-31T07:33:02.220Z,62.62
2018-05-31T07:34:02.258Z,61.93
2018-05-31T07:35:02.297Z,60.17
2018-05-31T07:36:02.346Z,59.59
2018-05-31T07:37:02.373Z,57.73
2018-05-31T07:38:02.423Z,57.82
2018-05-31T07:39:02.450Z,57.53
2018-05-31T07:40:02.488Z,56.85
2018-05-31T07:41:02.527Z,57.34
2018-05-31T07:42:02.563Z,56.06
2018-05-31T07:43:02.604Z,56.56
2018-05-31T07:44:02.641Z,58.80
2018-05-31T07:45:02.682Z,56.75
2018-05-31T07:46:02.718Z,56.56
2018-05-31T07:47:02.757Z,56.48
2018-05-31T07:48:02.794Z,56.58
2018-05-31T07:49:02.833Z,56.77
2018-05-31T07:50:02.872Z,55.92
2018-05-31T07:51:02.910Z,57.29
2018-05-31T07:52:02.949Z,58.57
2018-05-31T07:53:02.988Z,55.53
2018-05-31T07:54:03.025Z,55.33
2018-05-31T07:55:03.064Z,56.81
2018-05-31T07:56:03.103Z,58.01
2018-05-31T07:57:03.140Z,57.62
2018-05-31T07:58:03.255Z,58.14
2018-05-31T07:59:03.230Z,56.93
2018-05-31T08:00:03.268Z,55.76
2018-05-31T08:01:03.310Z,55.00
2018-05-31T08:02:03.344Z,55.98
2018-05-31T08:03:03.384Z,54.21
2018-05-31T08:04:03.422Z,53.82
2018-05-31T08:05:03.460Z,52.25
2018-05-31T08:06:03.499Z,53.16
2018-05-31T08:07:03.537Z,53.55
2018-05-31T08:08:03.575Z,54.44
2018-05-31T08:09:03.615Z,55.71
2018-05-31T08:10:03.667Z,55.93
2018-05-31T08:11:03.703Z,55.35
2018-05-31T08:12:03.744Z,56.23
2018-05-31T08:13:03.780Z,55.64
2018-05-31T08:14:03.818Z,54.36
2018-05-31T08:15:03.859Z,54.75
2018-05-31T08:16:03.896Z,53.97
2018-05-31T08:17:03.946Z,53.67
2018-05-31T08:18:03.985Z,53.31
2018-05-31T08:19:04.023Z,53.50
2018-05-31T08:20:04.062Z,53.60
2018-05-31T08:21:04.100Z,51.34
2018-05-31T08:22:04.150Z,51.45
2018-05-31T08:23:04.190Z,52.82
2018-05-31T08:24:04.228Z,52.13
2018-05-31T08:25:04.266Z,51.84
2018-05-31T08:26:04.305Z,52.06
2018-05-31T08:27:04.357Z,52.33
2018-05-31T08:28:04.395Z,50.95
2018-05-31T08:29:04.445Z,49.68
2018-05-31T08:30:04.472Z,50.07
2018-05-31T08:31:04.510Z,50.56
2018-05-31T08:32:04.565Z,51.07
2018-05-31T08:33:04.599Z,50.49
2018-05-31T08:34:04.638Z,50.19
2018-05-31T08:35:04.676Z,50.19
2018-05-31T08:36:04.727Z,50.19
2018-05-31T08:37:04.780Z,49.99
2018-05-31T08:38:04.804Z,50.12
2018-05-31T08:39:04.842Z,50.21
2018-05-31T08:40:04.892Z,50.12
2018-05-31T08:41:04.932Z,50.02
2018-05-31T08:42:04.969Z,51.00
2018-05-31T08:43:05.009Z,51.91
2018-05-31T08:44:05.111Z,52.01
2018-05-31T08:45:05.097Z,52.11
2018-05-31T08:46:05.137Z,52.21
2018-05-31T08:47:05.188Z,52.01
2018-05-31T08:48:05.225Z,51.52
2018-05-31T08:49:05.265Z,50.34
2018-05-31T08:50:05.304Z,49.46
2018-05-31T08:51:05.383Z,49.48
2018-05-31T08:52:05.391Z,49.35
2018-05-31T08:53:05.434Z,49.55
2018-05-31T08:54:05.485Z,50.24
2018-05-31T08:55:05.519Z,48.96
2018-05-31T08:56:05.557Z,49.16
2018-05-31T08:57:05.622Z,50.34
2018-05-31T08:58:05.650Z,49.55
2018-05-31T08:59:05.686Z,48.57
2018-05-31T09:00:05.737Z,49.06
2018-05-31T09:01:05.775Z,49.46
2018-05-31T09:02:05.814Z,49.26
2018-05-31T09:03:05.868Z,48.08
2018-05-31T09:04:05.904Z,48.18
2018-05-31T09:05:05.954Z,49.16
2018-05-31T09:06:05.991Z,49.35
2018-05-31T09:07:06.031Z,50.34
2018-05-31T09:08:06.081Z,51.12
2018-05-31T09:09:06.124Z,50.21
2018-05-31T09:10:06.158Z,49.35
2018-05-31T09:11:06.210Z,48.96
2018-05-31T09:12:06.250Z,49.65
2018-05-31T09:13:06.287Z,49.55
2018-05-31T09:14:06.337Z,49.26
2018-05-31T09:15:06.387Z,49.18
2018-05-31T09:16:06.427Z,49.08
2018-05-31T09:17:06.466Z,49.38
2018-05-31T09:18:06.502Z,47.91
2018-05-31T09:19:06.555Z,48.39
2018-05-31T09:20:06.593Z,48.49
2018-05-31T09:21:06.645Z,48.10
2018-05-31T09:22:06.682Z,50.66
2018-05-31T09:23:06.721Z,50.88
2018-05-31T09:24:06.772Z,48.82
2018-05-31T09:25:06.809Z,48.10
2018-05-31T09:26:06.859Z,49.08
2018-05-31T09:27:06.899Z,48.79
2018-05-31T09:28:06.937Z,49.08
2018-05-31T09:29:06.988Z,48.79
2018-05-31T09:30:07.026Z,50.37
2018-05-31T09:31:07.079Z,49.48
2018-05-31T09:32:07.115Z,48.69
2018-05-31T09:33:07.166Z,47.91
2018-05-31T09:34:07.205Z,48.30
2018-05-31T09:35:07.273Z,48.03
2018-05-31T09:36:07.294Z,48.22
2018-05-31T09:37:07.333Z,47.44
2018-05-31T09:38:07.385Z,47.83
2018-05-31T09:39:07.422Z,48.05
2018-05-31T09:40:07.472Z,48.05
2018-05-31T09:41:07.539Z,48.14
2018-05-31T09:42:07.562Z,47.66
2018-05-31T09:43:07.600Z,47.06
2018-05-31T09:44:07.639Z,46.10
2018-05-31T09:45:07.694Z,45.51
2018-05-31T09:46:07.730Z,46.89
2018-05-31T09:47:07.778Z,46.79
2018-05-31T09:48:07.818Z,48.29
2018-05-31T09:49:07.868Z,48.19
2018-05-31T09:50:07.919Z,47.21
2018-05-31T09:51:07.968Z,47.01
2018-05-31T09:52:07.997Z,46.91
2018-05-31T09:53:08.047Z,45.73
2018-05-31T09:54:08.085Z,46.84
2018-05-31T09:55:08.137Z,47.33
2018-05-31T09:56:08.176Z,45.73
2018-05-31T09:57:08.232Z,45.24
2018-05-31T09:58:08.315Z,45.26
2018-05-31T10:00:08.355Z,44.59
2018-05-31T10:01:08.404Z,44.89
2018-05-31T10:02:08.443Z,44.20
2018-05-31T10:03:08.494Z,44.42
2018-05-31T10:04:08.532Z,44.51
2018-05-31T10:05:08.583Z,44.81
2018-05-31T10:06:08.621Z,44.32
2018-05-31T10:07:08.673Z,44.64
2018-05-31T10:08:08.914Z,45.42
2018-05-31T10:09:08.762Z,46.44
2018-05-31T10:10:08.799Z,46.23
2018-05-31T10:11:08.851Z,46.95
2018-05-31T10:12:08.898Z,43.79
2018-05-31T10:13:08.941Z,44.60
2018-05-31T10:15:09.032Z,43.79
2018-05-31T10:16:09.072Z,43.71
2018-05-31T10:17:09.157Z,43.12
2018-05-31T10:18:09.157Z,42.44
2018-05-31T10:19:09.208Z,42.35
2018-05-31T10:20:09.258Z,42.27
2018-05-31T10:21:09.298Z,42.36
2018-05-31T10:22:09.353Z,41.77
2018-05-31T10:23:09.387Z,41.87
2018-05-31T10:24:09.438Z,41.87
2018-05-31T10:25:09.480Z,41.79
2018-05-31T10:26:09.529Z,41.30
2018-05-31T10:27:09.565Z,41.52
2018-05-31T10:28:09.616Z,41.22
2018-05-31T10:29:09.661Z,41.24
2018-05-31T10:30:09.765Z,41.24
2018-05-31T10:31:09.757Z,40.74
2018-05-31T10:32:09.799Z,41.46
2018-05-31T10:33:09.846Z,41.26
2018-05-31T10:34:09.887Z,40.98
2018-05-31T10:35:09.936Z,41.09
2018-05-31T10:36:09.987Z,39.41
2018-05-31T10:37:10.025Z,39.21
2018-05-31T10:38:10.080Z,39.11
2018-05-31T10:40:10.166Z,39.41
2018-05-31T10:41:10.221Z,39.01
2018-05-31T10:42:10.255Z,38.73
2018-05-31T10:43:10.305Z,37.94
2018-05-31T10:45:10.396Z,39.35
2018-05-31T10:46:10.447Z,39.54
2018-05-31T10:47:10.486Z,39.17
2018-05-31T10:48:10.535Z,37.77
2018-05-31T10:49:10.586Z,37.60
2018-05-31T10:50:10.638Z,37.49
2018-05-31T10:52:10.727Z,37.41
2018-05-31T10:53:10.765Z,38.01
2018-05-31T10:54:10.818Z,39.03
2018-05-31T10:56:10.905Z,39.34
2018-05-31T10:57:10.960Z,38.15
2018-05-31T10:58:11.008Z,38.56
2018-05-31T10:59:11.055Z,38.46
2018-05-31T11:00:11.096Z,37.77
2018-05-31T11:01:11.148Z,36.79
2018-05-31T11:02:11.198Z,36.07
2018-05-31T11:03:11.238Z,37.27
2018-05-31T11:04:11.293Z,37.57
2018-05-31T11:05:11.339Z,35.68
2018-05-31T11:06:11.377Z,35.47
2018-05-31T11:07:11.431Z,35.88
2018-05-31T11:08:11.479Z,35.68
2018-05-31T11:09:11.743Z,36.77
2018-05-31T11:10:11.569Z,36.76
2018-05-31T11:11:11.627Z,35.46
2018-05-31T11:12:11.670Z,35.66
2018-05-31T11:13:11.721Z,35.38
2018-05-31T11:14:11.760Z,36.18
2018-05-31T11:15:11.811Z,35.47
2018-05-31T11:16:11.850Z,35.89
2018-05-31T11:17:11.908Z,35.99
2018-05-31T11:18:11.952Z,35.69
2018-05-31T11:19:12.203Z,35.79
2018-05-31T11:20:12.052Z,35.59
2018-05-31T11:21:12.091Z,35.29
2018-05-31T11:22:12.145Z,35.01
2018-05-31T11:23:12.180Z,35.39
2018-05-31T11:24:12.232Z,36.09
2018-05-31T11:25:12.284Z,35.29
2018-05-31T11:26:12.321Z,35.79
2018-05-31T11:27:12.372Z,34.38
2018-05-31T11:28:12.627Z,34.78
2018-05-31T11:29:12.494Z,34.88
2018-05-31T11:30:12.512Z,34.38
2018-05-31T11:31:12.565Z,34.38
2018-05-31T11:32:12.601Z,34.56
2018-05-31T11:33:12.652Z,34.16
2018-05-31T11:34:12.702Z,34.66
2018-05-31T11:35:12.741Z,34.76
2018-05-31T11:36:12.794Z,34.98
2018-05-31T11:37:12.832Z,34.36
2018-05-31T11:38:12.881Z,34.76
2018-05-31T11:39:12.932Z,35.16
2018-05-31T11:40:12.973Z,35.66
2018-05-31T11:41:13.026Z,36.34
2018-05-31T11:42:13.073Z,35.52
2018-05-31T11:43:13.112Z,35.21
2018-05-31T11:44:13.162Z,36.08
2018-05-31T11:45:13.209Z,37.26
2018-05-31T11:46:13.241Z,38.06
2018-05-31T11:47:13.292Z,38.04
2018-05-31T11:48:13.329Z,37.94
2018-05-31T11:49:13.380Z,37.36
2018-05-31T11:50:13.430Z,37.06
2018-05-31T11:51:13.468Z,36.57
2018-05-31T11:52:13.508Z,35.97
2018-05-31T11:53:13.548Z,35.69
2018-05-31T11:54:13.597Z,35.69
2018-05-31T11:55:13.638Z,35.69
2018-05-31T11:56:13.687Z,35.71
2018-05-31T11:57:13.726Z,35.80
2018-05-31T11:58:13.774Z,35.42
2018-05-31T11:59:13.814Z,35.03
2018-05-31T12:00:13.853Z,35.22
2018-05-31T12:01:13.902Z,35.05
2018-05-31T12:02:13.941Z,34.64
2018-05-31T12:03:13.993Z,34.94
2018-05-31T12:04:14.030Z,34.55
2018-05-31T12:05:14.081Z,34.96
2018-05-31T12:06:14.131Z,35.36
2018-05-31T12:07:14.171Z,35.17
2018-05-31T12:08:14.256Z,35.10
2018-05-31T12:09:14.261Z,35.39
2018-05-31T12:10:14.311Z,34.61
2018-05-31T12:11:14.351Z,34.01
2018-05-31T12:12:14.415Z,33.81
2018-05-31T12:13:14.440Z,34.31
2018-05-31T12:14:14.489Z,34.43
2018-05-31T12:15:14.540Z,35.01
2018-05-31T12:16:14.585Z,35.72
2018-05-31T12:17:14.630Z,35.23
2018-05-31T12:18:14.667Z,33.75
2018-05-31T12:19:14.722Z,33.65
2018-05-31T12:20:14.770Z,33.75
2018-05-31T12:21:14.810Z,33.65
2018-05-31T12:22:14.859Z,33.56
2018-05-31T12:23:14.900Z,33.66
2018-05-31T12:24:14.961Z,33.58
2018-05-31T12:25:15.000Z,33.76
2018-05-31T12:26:15.039Z,33.38
2018-05-31T12:27:15.090Z,33.38
2018-05-31T12:28:15.128Z,33.26
2018-05-31T12:29:15.193Z,33.47
2018-05-31T12:30:15.229Z,33.36
2018-05-31T12:31:15.268Z,33.36
2018-05-31T12:32:15.370Z,33.35
2018-05-31T12:33:15.369Z,34.64
2018-05-31T12:34:15.408Z,33.84
2018-05-31T12:35:15.458Z,34.64
2018-05-31T12:36:15.498Z,34.73
2018-05-31T12:37:15.549Z,33.83
2018-05-31T12:38:15.599Z,34.43
2018-05-31T12:39:15.650Z,34.33
2018-05-31T12:40:15.688Z,33.61
2018-05-31T12:41:15.728Z,33.72
2018-05-31T12:42:15.778Z,33.80
2018-05-31T12:43:15.828Z,34.58
2018-05-31T12:44:15.866Z,34.68
2018-05-31T12:45:15.918Z,34.86
2018-05-31T12:46:15.956Z,35.14
2018-05-31T12:47:16.008Z,34.94
2018-05-31T12:48:16.045Z,35.72
2018-05-31T12:49:16.084Z,35.71
2018-05-31T12:50:16.137Z,35.29
2018-05-31T12:51:16.172Z,34.98
2018-05-31T12:52:16.271Z,35.38
2018-05-31T12:53:16.268Z,35.97
2018-05-31T12:54:16.304Z,36.25
2018-05-31T12:55:16.352Z,37.45
2018-05-31T12:56:16.393Z,37.45
2018-05-31T12:57:16.429Z,37.94
2018-05-31T12:58:16.479Z,36.96
2018-05-31T12:59:16.523Z,37.46